Time;durP1;ratioP1;P1;durP2;ratioP2;P2;SDS_P1;SDS_P2;PMS_P1;PMS_P2;Temp;Humidity;BMP_temperature;BMP_pressure;BME280_temperature;BME280_humidity;BME280_pressure;Samples;Min_cycle;Max_cycle;Signal;HPM_P1;HPM_P2
2021/07/08 00:01:04;;;;;;;21.00;14.15;;;;;;;16.09;100.00;95808.78;5050785;28;20033;-82
2021/07/08 00:03:29;;;;;;;18.30;12.40;;;;;;;16.06;100.00;95798.78;5057355;28;20119;-82
2021/07/08 00:05:55;;;;;;;17.60;12.60;;;;;;;16.05;100.00;95807.81;5045421;28;20037;-82
2021/07/08 00:08:20;;;;;;;19.83;13.55;;;;;;;16.01;100.00;95790.91;5049559;28;20517;-81
2021/07/08 00:10:51;;;;;;;19.20;13.52;;;;;;;15.95;100.00;95786.78;5064619;28;20510;-82
2021/07/08 00:13:18;;;;;;;23.88;14.45;;;;;;;15.95;100.00;95781.47;5051006;28;20033;-82
2021/07/08 00:15:44;;;;;;;20.42;13.77;;;;;;;15.92;100.00;95782.06;5055765;28;20080;-82
2021/07/08 00:18:11;;;;;;;25.25;14.57;;;;;;;15.93;100.00;95783.63;5050765;28;20041;-82
2021/07/08 00:20:39;;;;;;;21.08;14.15;;;;;;;15.90;100.00;95784.22;5047641;28;20044;-81
2021/07/08 00:23:05;;;;;;;20.75;14.52;;;;;;;15.88;100.00;95781.09;5052856;28;20037;-82
2021/07/08 00:25:32;;;;;;;18.50;13.20;;;;;;;15.81;100.00;95780.72;5047359;28;20041;-82
2021/07/08 00:27:58;;;;;;;18.67;12.82;;;;;;;15.76;100.00;95778.91;5046434;28;20041;-81
2021/07/08 00:30:24;;;;;;;17.80;12.43;;;;;;;15.81;100.00;95786.00;5052222;28;20040;-82
2021/07/08 00:32:51;;;;;;;19.10;13.05;;;;;;;15.77;100.00;95786.56;5051141;28;20037;-82
2021/07/08 00:35:16;;;;;;;18.63;13.55;;;;;;;15.67;100.00;95775.38;5061455;28;20495;-82
2021/07/08 00:37:42;;;;;;;21.67;12.75;;;;;;;15.65;100.00;95783.63;5046944;28;20054;-82
2021/07/08 00:40:11;;;;;;;24.38;12.95;;;;;;;15.58;100.00;95783.22;5046731;28;20037;-81
2021/07/08 00:42:37;;;;;;;16.90;12.57;;;;;;;15.60;100.00;95770.44;5047306;28;20049;-81
2021/07/08 00:45:05;;;;;;;16.83;12.80;;;;;;;15.64;100.00;95771.44;5052354;28;20037;-82
2021/07/08 00:47:31;;;;;;;19.38;13.55;;;;;;;15.57;100.00;95760.41;5064047;28;20072;-82
2021/07/08 00:49:57;;;;;;;20.90;13.80;;;;;;;15.52;100.00;95760.53;5047844;28;20051;-82
2021/07/08 00:52:22;;;;;;;17.85;13.02;;;;;;;15.52;100.00;95779.09;5047867;28;20041;-82
2021/07/08 00:54:48;;;;;;;21.40;12.77;;;;;;;15.58;100.00;95783.22;5047023;28;20068;-80
2021/07/08 00:57:14;;;;;;;18.33;12.70;;;;;;;15.60;100.00;95781.06;5044504;28;20036;-82
2021/07/08 00:59:44;;;;;;;20.75;13.48;;;;;;;15.58;100.00;95772.63;5050595;28;20098;-83
2021/07/08 01:02:13;;;;;;;17.63;11.88;;;;;;;15.65;100.00;95788.94;5045612;28;20281;-81
2021/07/08 01:04:43;;;;;;;16.98;12.25;;;;;;;15.66;100.00;95793.16;5050725;28;20044;-82
2021/07/08 01:07:10;;;;;;;23.45;13.40;;;;;;;15.66;100.00;95792.34;5051585;28;20041;-82
2021/07/08 01:09:36;;;;;;;20.80;12.80;;;;;;;15.66;100.00;95784.41;5065376;28;20092;-81
2021/07/08 01:12:01;;;;;;;16.33;12.23;;;;;;;15.67;100.00;95792.06;5044621;28;20042;-81
2021/07/08 01:14:27;;;;;;;18.70;12.70;;;;;;;15.66;100.00;95785.19;5052137;28;20087;-82
2021/07/08 01:16:52;;;;;;;15.30;11.13;;;;;;;15.72;100.00;95791.97;5052304;28;20060;-82
2021/07/08 01:19:18;;;;;;;17.83;12.02;;;;;;;15.73;100.00;95780.28;5050068;28;20429;-81
2021/07/08 01:21:43;;;;;;;16.15;12.10;;;;;;;15.71;100.00;95774.47;5049569;28;20045;-82
2021/07/08 01:24:09;;;;;;;16.13;12.38;;;;;;;15.71;100.00;95777.13;5055823;28;20543;-82
2021/07/08 01:26:39;;;;;;;17.17;12.57;;;;;;;15.75;100.00;95772.81;5064908;28;20830;-82
2021/07/08 01:29:04;;;;;;;17.58;11.80;;;;;;;15.75;100.00;95764.06;5053954;28;20075;-80
2021/07/08 01:31:30;;;;;;;18.98;11.95;;;;;;;15.73;100.00;95759.06;5065533;28;20092;-82
2021/07/08 01:33:55;;;;;;;19.15;11.52;;;;;;;15.72;100.00;95762.00;5064550;28;20045;-82
2021/07/08 01:36:22;;;;;;;16.55;11.65;;;;;;;15.77;100.00;95762.69;5050883;28;20414;-82
2021/07/08 01:38:47;;;;;;;16.58;12.45;;;;;;;15.79;100.00;95758.97;5067189;28;20044;-82
2021/07/08 01:41:15;;;;;;;16.92;11.80;;;;;;;15.80;100.00;95747.28;5050491;28;20065;-82
2021/07/08 01:43:42;;;;;;;18.90;13.70;;;;;;;15.75;100.00;95740.97;5052150;28;20481;-82
2021/07/08 01:46:09;;;;;;;15.60;12.13;;;;;;;15.77;100.00;95744.13;5066769;28;20063;-81
2021/07/08 01:48:35;;;;;;;15.50;12.73;;;;;;;15.74;100.00;95733.31;5065454;28;20410;-81
2021/07/08 01:51:04;;;;;;;16.17;12.65;;;;;;;15.72;100.00;95730.94;5048303;28;20110;-81
2021/07/08 01:53:30;;;;;;;18.50;12.00;;;;;;;15.67;100.00;95720.44;5044860;28;20045;-80
2021/07/08 01:55:57;;;;;;;16.75;11.80;;;;;;;15.66;100.00;95721.53;5051084;28;20486;-82
2021/07/08 01:58:26;;;;;;;15.07;11.52;;;;;;;15.69;100.00;95723.59;5064868;28;20103;-81
2021/07/08 02:00:53;;;;;;;16.80;11.75;;;;;;;15.67;100.00;95717.78;5052400;28;20079;-82
2021/07/08 02:03:19;;;;;;;16.33;11.65;;;;;;;15.67;100.00;95715.13;5044557;28;20506;-81
2021/07/08 02:05:45;;;;;;;14.98;10.85;;;;;;;15.69;100.00;95726.25;5067557;28;20041;-82
2021/07/08 02:08:11;;;;;;;20.20;11.43;;;;;;;15.74;100.00;95728.78;5052379;28;20043;-81
2021/07/08 02:10:37;;;;;;;13.85;10.90;;;;;;;15.74;100.00;95720.81;5047184;28;20048;-80
2021/07/08 02:13:04;;;;;;;16.88;11.15;;;;;;;15.74;100.00;95722.69;5049939;28;20419;-81
2021/07/08 02:15:29;;;;;;;16.10;10.80;;;;;;;15.74;100.00;95720.03;5047429;28;20056;-82
2021/07/08 02:17:55;;;;;;;14.38;10.95;;;;;;;15.78;100.00;95718.38;5045964;28;20036;-80
2021/07/08 02:20:21;;;;;;;14.80;10.52;;;;;;;15.79;100.00;95725.28;5049608;28;20582;-82
2021/07/08 02:22:47;;;;;;;15.52;10.30;;;;;;;15.82;100.00;95721.25;5050404;28;20082;-81
2021/07/08 02:25:13;;;;;;;15.80;11.02;;;;;;;15.84;100.00;95727.03;5052132;28;20037;-82
2021/07/08 02:27:40;;;;;;;19.90;10.60;;;;;;;15.82;100.00;95729.22;5047479;28;20052;-81
2021/07/08 02:30:08;;;;;;;16.70;10.82;;;;;;;15.88;100.00;95728.00;5050328;28;20182;-82
2021/07/08 02:32:34;;;;;;;13.55;9.63;;;;;;;15.86;100.00;95722.22;5055862;28;20391;-82
2021/07/08 02:35:00;;;;;;;13.90;10.13;;;;;;;15.76;100.00;95713.34;5050519;28;20041;-82
2021/07/08 02:37:25;;;;;;;16.30;9.95;;;;;;;15.83;100.00;95704.22;5048610;28;20033;-81
2021/07/08 02:39:51;;;;;;;14.27;9.80;;;;;;;15.80;100.00;95710.13;5046828;28;20646;-82
2021/07/08 02:42:16;;;;;;;14.25;9.48;;;;;;;15.80;100.00;95720.75;5066978;28;20044;-82
2021/07/08 02:44:42;;;;;;;13.27;10.13;;;;;;;15.79;100.00;95719.97;5050628;28;20036;-81
2021/07/08 02:47:07;;;;;;;13.60;9.40;;;;;;;15.80;100.00;95720.75;5052880;28;20081;-81
2021/07/08 02:49:33;;;;;;;12.70;9.85;;;;;;;15.81;100.00;95717.78;5049853;28;20038;-81
2021/07/08 02:51:58;;;;;;;13.80;9.38;;;;;;;15.80;100.00;95726.84;5049005;28;20091;-82
2021/07/08 02:54:24;;;;;;;11.18;9.45;;;;;;;15.84;100.00;95733.13;5057390;28;20044;-82
2021/07/08 02:56:50;;;;;;;13.30;9.70;;;;;;;15.81;100.00;95735.59;5065022;28;20041;-81
2021/07/08 02:59:15;;;;;;;13.32;9.75;;;;;;;15.83;100.00;95730.75;5045754;28;20486;-82
2021/07/08 03:01:41;;;;;;;15.73;9.93;;;;;;;15.82;100.00;95739.81;5047394;28;20114;-82
2021/07/08 03:04:06;;;;;;;12.15;9.60;;;;;;;15.79;100.00;95740.41;5051379;28;20037;-81
2021/07/08 03:06:33;;;;;;;14.77;10.23;;;;;;;15.80;100.00;95731.38;5050214;28;20049;-81
2021/07/08 03:08:59;;;;;;;13.07;9.20;;;;;;;15.86;100.00;95730.16;5063861;28;20414;-81
2021/07/08 03:11:24;;;;;;;11.98;8.30;;;;;;;15.86;100.00;95724.84;5051732;28;20032;-82
2021/07/08 03:13:50;;;;;;;14.50;9.15;;;;;;;15.87;100.00;95734.41;5047856;28;20036;-81
2021/07/08 03:16:16;;;;;;;12.43;8.55;;;;;;;15.85;100.00;95732.03;5047639;28;20041;-82
2021/07/08 03:18:41;;;;;;;12.32;9.57;;;;;;;15.88;100.00;95730.66;5047713;28;20036;-82
2021/07/08 03:21:06;;;;;;;11.43;8.45;;;;;;;15.87;100.00;95739.72;5048697;28;20107;-80
2021/07/08 03:23:34;;;;;;;15.77;9.25;;;;;;;15.86;100.00;95732.81;5065413;28;20041;-82
2021/07/08 03:26:00;;;;;;;10.02;8.05;;;;;;;15.88;100.00;95722.72;5048733;28;20032;-82
2021/07/08 03:28:26;;;;;;;10.57;8.73;;;;;;;15.85;100.00;95720.66;5043259;28;20040;-82
2021/07/08 03:30:51;;;;;;;10.88;8.52;;;;;;;15.87;100.00;95726.44;5051917;28;20037;-82
2021/07/08 03:33:17;;;;;;;12.40;8.23;;;;;;;15.93;100.00;95730.56;5049549;28;20040;-82
2021/07/08 03:35:42;;;;;;;9.55;7.85;;;;;;;15.91;100.00;95735.38;5041384;28;20421;-82
2021/07/08 03:38:08;;;;;;;10.10;7.75;;;;;;;15.93;100.00;95730.56;5046971;28;20071;-82
2021/07/08 03:40:34;;;;;;;10.40;7.78;;;;;;;15.98;100.00;95741.06;5049687;28;20033;-82
2021/07/08 03:43:00;;;;;;;9.10;7.07;;;;;;;15.97;100.00;95736.84;5046552;28;20043;-82
2021/07/08 03:45:26;;;;;;;8.95;7.03;;;;;;;15.98;100.00;95750.91;5065941;28;20033;-82
2021/07/08 03:47:52;;;;;;;10.85;7.65;;;;;;;16.01;100.00;95753.75;5046730;28;20072;-82
2021/07/08 03:50:19;;;;;;;9.23;7.03;;;;;;;15.99;100.00;95755.91;5047292;28;20041;-82
2021/07/08 03:52:45;;;;;;;8.75;6.80;;;;;;;15.93;100.00;95757.09;5046713;28;20091;-82
2021/07/08 03:55:13;;;;;;;10.95;6.78;;;;;;;15.98;100.00;95759.66;5053710;28;20033;-82
2021/07/08 03:57:58;;;;;;;10.48;6.78;;;;;;;15.98;100.00;95764.97;5052531;28;20060;-82
2021/07/08 04:00:39;;;;;;;11.05;6.88;;;;;;;16.03;100.00;95756.91;5045032;28;20032;-81
2021/07/08 04:03:08;;;;;;;11.35;7.03;;;;;;;15.96;100.00;95756.53;5046345;28;20402;-82
2021/07/08 04:05:35;;;;;;;9.68;7.03;;;;;;;15.98;100.00;95759.66;5047731;28;20037;-82
2021/07/08 04:08:02;;;;;;;9.90;6.43;;;;;;;15.98;100.00;95759.66;5063778;28;20036;-82
2021/07/08 04:10:28;;;;;;;8.82;6.70;;;;;;;16.01;100.00;95764.34;5048004;28;20044;-82
2021/07/08 04:12:55;;;;;;;8.45;6.57;;;;;;;16.07;100.00;95767.69;5063513;28;20076;-82
2021/07/08 04:15:21;;;;;;;10.65;6.70;;;;;;;16.07;100.00;95762.38;5048280;28;20029;-82
2021/07/08 04:17:46;;;;;;;10.63;6.80;;;;;;;16.08;100.00;95770.03;5062831;28;20391;-81
2021/07/08 04:20:16;;;;;;;11.35;6.32;;;;;;;16.15;100.00;95768.84;5046959;28;20045;-82
2021/07/08 04:22:42;;;;;;;10.23;6.90;;;;;;;16.09;100.00;95766.31;5059649;28;20076;-82
2021/07/08 04:25:08;;;;;;;7.88;6.55;;;;;;;16.08;100.00;95774.59;5050263;28;20037;-82
2021/07/08 04:27:34;;;;;;;12.63;6.78;;;;;;;16.09;100.00;95787.56;5040112;28;20499;-82
2021/07/08 04:30:00;;;;;;;9.55;7.32;;;;;;;16.05;100.00;95781.25;5047733;28;20041;-81
2021/07/08 04:32:26;;;;;;;9.90;6.40;;;;;;;16.07;100.00;95778.31;5046328;28;20430;-82
2021/07/08 04:34:51;;;;;;;8.68;6.35;;;;;;;16.09;100.00;95776.94;5048717;28;20060;-82
2021/07/08 04:37:17;;;;;;;10.50;5.93;;;;;;;16.03;100.00;95766.72;5050402;28;20064;-82
2021/07/08 04:39:43;;;;;;;10.68;6.45;;;;;;;16.08;100.00;95770.03;5046997;28;20049;-81
2021/07/08 04:42:10;;;;;;;10.07;6.35;;;;;;;16.08;100.00;95767.41;5051438;28;20044;-82
2021/07/08 04:44:37;;;;;;;7.50;4.85;;;;;;;16.05;100.00;95780.50;5051956;28;20037;-83
2021/07/08 04:47:04;;;;;;;11.00;5.60;;;;;;;16.06;100.00;95782.84;5052390;28;20533;-81
2021/07/08 04:49:29;;;;;;;8.63;5.50;;;;;;;16.07;100.00;95784.41;5055089;28;20454;-81
2021/07/08 04:51:55;;;;;;;6.93;5.22;;;;;;;16.02;100.00;95771.25;5050919;28;20060;-81
2021/07/08 04:54:21;;;;;;;7.47;5.63;;;;;;;16.05;100.00;95765.34;5055479;28;20549;-81
2021/07/08 04:56:46;;;;;;;7.75;5.60;;;;;;;15.91;100.00;95754.72;5066827;28;20048;-80
2021/07/08 04:59:12;;;;;;;8.75;5.90;;;;;;;16.00;100.00;95762.00;5054499;28;20036;-82
2021/07/08 05:01:37;;;;;;;9.98;5.82;;;;;;;15.99;100.00;95761.22;5051924;28;20128;-81
2021/07/08 05:04:03;;;;;;;7.72;5.18;;;;;;;16.08;100.00;95775.34;5067570;28;20456;-82
2021/07/08 05:06:29;;;;;;;7.88;5.55;;;;;;;16.04;100.00;95766.41;5052545;28;20637;-81
2021/07/08 05:08:54;;;;;;;8.85;5.22;;;;;;;16.07;100.00;95771.13;5053381;28;20074;-82
2021/07/08 05:11:20;;;;;;;9.40;6.03;;;;;;;16.05;100.00;95775.97;5043747;28;20041;-82
2021/07/08 05:13:45;;;;;;;8.55;5.68;;;;;;;16.04;100.00;95782.34;5047163;28;20098;-82
2021/07/08 05:16:10;;;;;;;9.02;5.75;;;;;;;16.04;100.00;95785.00;5050467;28;20033;-82
2021/07/08 05:18:36;;;;;;;11.85;6.65;;;;;;;16.01;100.00;95780.28;5049055;28;20646;-82
2021/07/08 05:21:02;;;;;;;11.23;7.10;;;;;;;16.01;100.00;95774.19;5051729;28;20116;-82
2021/07/08 05:23:29;;;;;;;8.27;6.47;;;;;;;16.03;100.00;95772.81;5056314;28;20041;-82
2021/07/08 05:25:55;;;;;;;8.48;7.30;;;;;;;15.95;100.00;95768.22;5051677;28;20714;-82
2021/07/08 05:28:21;;;;;;;9.40;7.05;;;;;;;16.07;100.00;95773.78;5049821;28;20033;-82
2021/07/08 05:30:46;;;;;;;10.90;7.75;;;;;;;16.15;100.00;95784.78;5048631;28;20512;-82
2021/07/08 05:33:12;;;;;;;10.48;7.38;;;;;;;16.13;100.00;95777.09;5051803;28;20041;-81
2021/07/08 05:35:38;;;;;;;10.73;8.00;;;;;;;16.13;100.00;95776.34;5066209;28;20047;-82
2021/07/08 05:38:03;;;;;;;10.85;7.70;;;;;;;16.16;100.00;95776.53;5049860;28;20068;-81
2021/07/08 05:40:29;;;;;;;17.15;8.77;;;;;;;16.18;100.00;95773.59;5046296;28;20576;-81
2021/07/08 05:42:55;;;;;;;10.88;8.80;;;;;;;16.25;100.00;95779.28;5047692;28;20044;-81
2021/07/08 05:45:21;;;;;;;11.25;9.32;;;;;;;16.23;99.79;95754.88;5062995;28;20041;-82
2021/07/08 05:47:47;;;;;;;11.80;9.07;;;;;;;16.18;100.00;95769.06;5051366;28;20048;-82
2021/07/08 05:50:13;;;;;;;12.45;9.82;;;;;;;16.13;100.00;95777.09;5052557;28;20045;-82
2021/07/08 05:52:39;;;;;;;11.40;9.65;;;;;;;16.18;100.00;95778.91;5050549;28;20163;-83
2021/07/08 05:55:05;;;;;;;22.40;9.90;;;;;;;16.35;99.77;95789.66;5051407;28;20041;-82
2021/07/08 05:57:31;;;;;;;14.18;9.48;;;;;;;16.30;99.27;95789.78;5067730;28;20521;-82
2021/07/08 05:59:56;;;;;;;13.35;9.93;;;;;;;16.28;99.85;95789.28;5047126;28;20037;-81
2021/07/08 06:02:22;;;;;;;18.88;10.60;;;;;;;16.25;100.00;95784.59;5045549;28;20048;-82
2021/07/08 06:04:48;;;;;;;14.13;10.20;;;;;;;16.29;100.00;95785.53;5062457;28;20486;-82
2021/07/08 06:07:13;;;;;;;18.58;10.32;;;;;;;16.29;100.00;95785.53;5048144;28;20724;-82
2021/07/08 06:09:39;;;;;;;16.45;10.90;;;;;;;16.30;100.00;95792.41;5066144;28;20554;-82
2021/07/08 06:12:05;;;;;;;13.25;10.43;;;;;;;16.30;99.77;95800.38;5071812;28;20037;-82
2021/07/08 06:14:31;;;;;;;14.07;10.88;;;;;;;16.29;99.89;95796.16;5044782;28;20037;-82
2021/07/08 06:16:56;;;;;;;16.15;10.85;;;;;;;16.29;100.00;95774.91;5047649;28;20059;-82
2021/07/08 06:19:22;;;;;;;15.85;11.07;;;;;;;16.30;99.99;95781.03;5053419;28;20491;-81
2021/07/08 06:21:50;;;;;;;17.88;11.75;;;;;;;16.28;100.00;95773.38;5069295;28;20064;-82
2021/07/08 06:24:17;;;;;;;16.98;12.38;;;;;;;16.27;100.00;95777.09;5056669;28;20049;-83
2021/07/08 06:26:42;;;;;;;17.27;11.43;;;;;;;16.34;100.00;95782.00;5052200;28;20522;-81
2021/07/08 06:29:08;;;;;;;18.40;12.15;;;;;;;16.37;100.00;95789.38;5050977;28;20040;-80
2021/07/08 06:31:34;;;;;;;22.23;13.25;;;;;;;16.37;100.00;95798.13;5052677;28;20049;-81
2021/07/08 06:33:59;;;;;;;21.42;12.45;;;;;;;16.36;100.00;95801.84;5066726;28;20045;-81
2021/07/08 06:36:25;;;;;;;18.77;13.10;;;;;;;16.35;100.00;95802.94;5050993;28;20048;-80
2021/07/08 06:38:51;;;;;;;17.67;13.00;;;;;;;16.36;100.00;95793.09;5054171;28;20410;-81
2021/07/08 06:41:17;;;;;;;21.92;13.88;;;;;;;16.31;100.00;95788.69;5053464;28;20099;-82
2021/07/08 06:43:44;;;;;;;23.55;14.40;;;;;;;16.35;100.00;95773.75;5050033;28;20141;-82
2021/07/08 06:46:14;;;;;;;20.98;13.80;;;;;;;16.39;100.00;95774.72;5049516;28;20041;-81
2021/07/08 06:48:39;;;;;;;26.65;14.18;;;;;;;16.43;100.00;95774.88;5066661;28;20178;-80
2021/07/08 06:51:05;;;;;;;19.48;14.30;;;;;;;16.53;99.72;95779.19;5070822;28;20115;-81
2021/07/08 06:53:30;;;;;;;21.60;14.10;;;;;;;16.48;100.00;95776.63;5051255;28;20045;-80
2021/07/08 06:55:56;;;;;;;22.17;14.10;;;;;;;16.49;100.00;95770.25;5049741;28;20090;-82
2021/07/08 06:58:21;;;;;;;20.60;14.65;;;;;;;16.48;100.00;95777.44;5048095;28;20036;-81
2021/07/08 07:00:47;;;;;;;20.73;15.38;;;;;;;16.55;100.00;95784.97;5050821;28;20157;-80
2021/07/08 07:03:13;;;;;;;23.45;16.45;;;;;;;16.52;100.00;95782.91;5046891;28;20273;-82
2021/07/08 07:05:38;;;;;;;23.80;16.20;;;;;;;16.54;100.00;95786.06;5050809;28;20074;-81
2021/07/08 07:08:04;;;;;;;23.60;16.20;;;;;;;16.54;100.00;95794.81;5061607;28;20037;-81
2021/07/08 07:10:30;;;;;;;23.85;16.38;;;;;;;16.54;100.00;95799.38;5051805;28;20045;-81
2021/07/08 07:12:58;;;;;;;28.08;16.85;;;;;;;16.47;100.00;95801.66;5045549;28;20414;-81
2021/07/08 07:15:28;;;;;;;22.45;17.17;;;;;;;16.52;100.00;95798.84;5048719;28;20040;-81
2021/07/08 07:17:54;;;;;;;21.95;16.20;;;;;;;16.52;100.00;95809.47;5059662;28;20071;-80
2021/07/08 07:20:21;;;;;;;22.38;16.52;;;;;;;16.58;100.00;95808.31;5049866;28;20064;-81
2021/07/08 07:22:48;;;;;;;26.40;17.17;;;;;;;16.54;100.00;95802.03;5050236;28;20044;-81
2021/07/08 07:25:19;;;;;;;23.88;15.32;;;;;;;16.67;99.51;95808.38;5064557;28;20048;-81
2021/07/08 07:27:49;;;;;;;30.90;17.30;;;;;;;16.64;100.00;95807.09;5045539;28;20041;-81
2021/07/08 07:30:17;;;;;;;28.02;18.95;;;;;;;16.65;100.00;95803.34;5066295;28;20043;-81
2021/07/08 07:32:42;;;;;;;28.00;18.35;;;;;;;16.71;99.90;95796.84;5052147;28;20040;-81
2021/07/08 07:35:08;;;;;;;35.95;20.65;;;;;;;16.68;99.52;95802.75;5046301;28;20037;-80
2021/07/08 07:37:34;;;;;;;29.20;19.13;;;;;;;16.78;98.85;95805.19;5043228;28;20040;-81
2021/07/08 07:39:59;;;;;;;32.10;20.13;;;;;;;16.76;99.40;95804.66;5047742;28;20037;-82
2021/07/08 07:42:25;;;;;;;32.28;19.33;;;;;;;16.70;99.94;95813.84;5045542;28;20110;-81
2021/07/08 07:44:51;;;;;;;30.25;19.98;;;;;;;16.73;99.60;95821.22;5048029;28;20043;-81
2021/07/08 07:47:17;;;;;;;31.88;20.58;;;;;;;16.74;100.00;95825.47;5044947;28;20052;-81
2021/07/08 07:49:44;;;;;;;32.08;21.10;;;;;;;16.74;100.00;95828.13;5049037;28;20047;-81
2021/07/08 07:52:12;;;;;;;30.20;19.33;;;;;;;16.76;99.57;95831.25;5053819;28;20039;-80
2021/07/08 07:54:38;;;;;;;34.15;20.05;;;;;;;16.73;98.65;95837.16;5051966;28;20048;-83
2021/07/08 07:57:05;;;;;;;33.95;20.92;;;;;;;16.70;98.65;95832.47;5051028;28;20041;-80
2021/07/08 07:59:38;;;;;;;35.47;21.00;;;;;;;16.61;99.27;95839.59;5052415;28;20041;-81
2021/07/08 08:02:09;;;;;;;36.72;21.83;;;;;;;16.64;100.00;95833.66;5066966;28;20033;-81
2021/07/08 08:04:41;;;;;;;35.20;22.02;;;;;;;16.64;98.60;95833.66;5052011;28;20044;-81
2021/07/08 08:09:51;;;;;;;32.72;21.10;;;;;;;16.82;99.41;95820.50;5050972;28;20059;-81
2021/07/08 08:12:16;;;;;;;35.60;21.75;;;;;;;16.78;99.18;95812.38;5050447;28;20059;-86
2021/07/08 08:14:42;;;;;;;34.72;22.17;;;;;;;16.74;99.71;95817.50;5051099;28;20395;-84
2021/07/08 08:17:07;;;;;;;36.30;23.27;;;;;;;16.85;99.23;95817.25;5055220;28;20091;-81
2021/07/08 08:19:33;;;;;;;40.05;23.58;;;;;;;16.87;99.65;95809.78;5053669;28;20044;-81
2021/07/08 08:21:58;;;;;;;35.05;23.10;;;;;;;16.94;98.84;95826.13;5049137;28;20033;-80
2021/07/08 08:24:24;;;;;;;38.90;24.42;;;;;;;16.97;98.00;95836.16;5068034;28;20041;-79
2021/07/08 08:26:52;;;;;;;40.22;26.17;;;;;;;16.95;98.40;95838.31;5048736;28;20055;-81
2021/07/08 08:29:21;;;;;;;38.83;24.90;;;;;;;17.01;98.56;95837.13;5050916;28;20522;-83
2021/07/08 08:31:47;;;;;;;38.67;25.95;;;;;;;17.06;99.28;95834.31;5051888;28;20410;-80
2021/07/08 08:34:13;;;;;;;39.35;24.85;;;;;;;17.02;98.18;95833.34;5053619;28;20048;-82
2021/07/08 08:36:39;;;;;;;33.90;23.83;;;;;;;17.04;97.66;95841.81;5050840;28;20045;-80
2021/07/08 08:39:05;;;;;;;40.53;25.20;;;;;;;17.12;97.62;95838.44;5052302;28;20041;-81
2021/07/08 08:41:34;;;;;;;38.40;24.42;;;;;;;17.20;97.40;95838.81;5052175;28;20044;-81
2021/07/08 08:44:00;;;;;;;36.35;23.48;;;;;;;17.28;97.15;95838.03;5060822;28;20037;-80
2021/07/08 08:46:26;;;;;;;37.45;23.35;;;;;;;17.18;97.04;95856.91;5051537;28;20518;-80
2021/07/08 08:48:51;;;;;;;31.35;22.17;;;;;;;17.17;96.63;95865.97;5047235;28;20033;-80
2021/07/08 08:51:17;;;;;;;35.35;23.48;;;;;;;17.14;98.53;95868.16;5067607;28;20048;-80
2021/07/08 08:53:43;;;;;;;34.70;23.50;;;;;;;17.19;97.76;95869.13;5052433;28;20490;-80
2021/07/08 08:56:09;;;;;;;35.22;24.33;;;;;;;17.16;97.71;95867.09;5052671;28;20033;-80
2021/07/08 08:58:34;;;;;;;40.25;24.65;;;;;;;17.07;98.54;95873.13;5049679;28;20060;-80
2021/07/08 09:01:03;;;;;;;39.67;26.58;;;;;;;17.04;97.38;95871.06;5052161;28;20037;-79
2021/07/08 09:03:32;;;;;;;41.97;27.08;;;;;;;17.03;98.45;95872.16;5051110;28;20522;-79
2021/07/08 09:06:07;;;;;;;47.78;27.27;;;;;;;17.06;98.62;95860.13;5049461;28;20040;-79
2021/07/08 09:08:38;;;;;;;40.10;27.00;;;;;;;17.08;96.85;95858.75;5049730;28;20055;-79
2021/07/08 09:11:13;;;;;;;38.92;27.42;;;;;;;17.03;97.43;95852.75;5050139;28;20033;-79
2021/07/08 09:13:42;;;;;;;40.25;27.77;;;;;;;17.07;97.85;95851.84;5050851;28;20490;-79
2021/07/08 09:16:11;;;;;;;42.72;29.45;;;;;;;17.05;97.69;95840.75;5050311;28;20071;-79
2021/07/08 09:18:37;;;;;;;43.55;29.02;;;;;;;17.19;97.69;95858.50;5064487;28;20155;-79
2021/07/08 09:21:16;;;;;;;44.83;30.13;;;;;;;17.26;98.50;95864.19;5049902;28;20041;-80
2021/07/08 09:24:17;;;;;;;41.03;28.73;;;;;;;17.27;97.94;95865.75;5050709;28;20037;-80
2021/07/08 09:26:57;;;;;;;41.92;27.95;;;;;;;17.27;97.48;95871.06;5047758;28;20052;-79
2021/07/08 09:29:26;;;;;;;38.80;27.52;;;;;;;17.29;96.75;95868.88;5058491;28;20107;-80
2021/07/08 09:31:55;;;;;;;35.30;26.80;;;;;;;17.45;96.05;95861.31;5053115;28;20040;-82
2021/07/08 09:34:42;;;;;;;40.97;28.50;;;;;;;17.29;96.30;95863.56;5051348;28;20033;-83
2021/07/08 09:37:14;;;;;;;41.83;28.40;;;;;;;17.28;96.80;95857.47;5051722;28;20098;-80
2021/07/08 09:39:42;;;;;;;38.67;29.27;;;;;;;17.33;96.00;95832.63;5052552;28;20055;-80
2021/07/08 09:42:10;;;;;;;38.10;27.40;;;;;;;17.49;96.13;95820.47;5052679;28;20049;-79
2021/07/08 09:44:37;;;;;;;43.78;29.60;;;;;;;17.60;97.00;95810.38;5053699;28;20055;-80
2021/07/08 09:47:04;;;;;;;44.50;30.50;;;;;;;17.72;97.94;95801.78;5053819;28;20072;-79
2021/07/08 09:49:30;;;;;;;35.53;25.90;;;;;;;17.83;92.87;95804.97;5056131;28;20090;-80
2021/07/08 09:51:56;;;;;;;36.33;26.98;;;;;;;17.90;93.43;95817.81;5053189;28;20450;-83
2021/07/08 09:57:41;;;;;;;35.45;26.67;;;;;;;18.08;94.57;95795.50;5061046;28;20412;-82
2021/07/08 10:00:28;;;;;;;36.92;26.10;;;;;;;18.18;93.72;95781.88;5051682;28;20147;-79
2021/07/08 10:02:55;;;;;;;35.38;24.92;;;;;;;18.27;93.15;95783.78;5053819;28;20410;-79
2021/07/08 10:05:22;;;;;;;35.75;25.02;;;;;;;18.33;92.68;95803.84;5049884;28;20045;-82
2021/07/08 10:07:48;;;;;;;37.35;24.08;;;;;;;18.46;91.48;95813.59;5051762;28;20072;-81
2021/07/08 10:10:15;;;;;;;33.42;24.13;;;;;;;18.54;91.42;95820.03;5054378;28;20060;-81
2021/07/08 10:12:42;;;;;;;35.88;25.08;;;;;;;18.49;90.90;95826.28;5052650;28;20167;-81
2021/07/08 10:15:10;;;;;;;33.92;24.27;;;;;;;18.60;90.99;95813.44;5070677;22;20537;-83
2021/07/08 10:17:38;;;;;;;30.80;23.27;;;;;;;18.66;90.29;95822.06;5044975;28;20051;-83
2021/07/08 10:20:10;;;;;;;29.95;22.80;;;;;;;18.56;90.39;95817.03;5052418;28;20405;-83
2021/07/08 10:22:37;;;;;;;31.35;21.35;;;;;;;18.51;92.47;95826.75;5060855;28;20048;-84
2021/07/08 10:25:04;;;;;;;28.17;21.60;;;;;;;18.69;89.95;95838.22;5071989;28;20411;-83
2021/07/08 10:27:31;;;;;;;25.02;20.65;;;;;;;18.68;90.25;95833.22;5070617;28;20056;-84
2021/07/08 10:29:59;;;;;;;26.67;22.10;;;;;;;18.67;91.21;95834.28;5085626;28;20118;-84
2021/07/08 10:32:26;;;;;;;26.20;21.35;;;;;;;18.59;91.41;95843.06;5069304;28;20048;-83
2021/07/08 10:34:53;;;;;;;27.08;20.88;;;;;;;18.68;91.22;95836.66;5063218;28;20473;-83
2021/07/08 10:37:25;;;;;;;26.27;20.48;;;;;;;18.80;89.88;95840.56;5080974;28;20044;-84
2021/07/08 10:39:51;;;;;;;25.27;20.40;;;;;;;18.82;89.38;95849.84;5067420;28;20044;-83
2021/07/08 10:42:39;;;;;;;29.42;21.95;;;;;;;18.78;90.92;95846.22;5064800;28;20037;-84
2021/07/08 10:45:05;;;;;;;26.70;21.00;;;;;;;18.68;91.17;95827.88;5066586;28;20494;-84
2021/07/08 10:47:39;;;;;;;26.45;22.38;;;;;;;18.81;90.30;95824.25;5067465;28;20067;-85
2021/07/08 10:50:36;;;;;;;34.85;24.42;;;;;;;19.01;92.43;95822.09;5066963;28;20047;-86
2021/07/08 10:53:26;;;;;;;27.15;21.80;;;;;;;19.18;91.28;95827.41;5066919;28;20040;-80
2021/07/08 10:55:54;;;;;;;30.17;23.33;;;;;;;19.35;91.30;95837.25;5064556;28;20033;-83
2021/07/08 10:58:47;;;;;;;35.78;22.50;;;;;;;19.44;88.24;95834.56;5079183;28;20043;-82
2021/07/08 11:01:21;;;;;;;30.13;21.23;;;;;;;19.44;89.21;95829.22;5087601;28;20037;-82
2021/07/08 11:04:01;;;;;;;29.80;21.58;;;;;;;19.45;90.31;95824.66;5073869;28;20251;-84
2021/07/08 11:06:31;;;;;;;31.83;21.17;;;;;;;19.47;88.41;95811.81;5070687;28;20115;-85
2021/07/08 11:09:04;;;;;;;28.02;21.00;;;;;;;19.69;87.60;95821.44;5070002;28;20048;-83
2021/07/08 11:11:30;;;;;;;23.92;19.75;;;;;;;19.89;86.87;95818.09;5082977;28;20044;-83
2021/07/08 11:14:16;;;;;;;25.15;20.30;;;;;;;19.70;87.88;95823.78;5084299;28;20521;-85
2021/07/08 11:16:45;;;;;;;27.30;21.00;;;;;;;19.97;87.93;95829.03;5071838;28;20052;-87
2021/07/08 11:19:12;;;;;;;27.40;20.23;;;;;;;19.90;86.17;95830.34;5086525;28;20045;-88
2021/07/08 11:21:53;;;;;;;25.05;19.30;;;;;;;19.88;86.47;95827.22;5086583;28;20106;-84